sensor_id;sensor_type;location;lat;lon;timestamp;P1;durP1;ratioP1;P2;durP2;ratioP2
30605;SDS011;17371;51.328;3.860;2022-10-16T00:00:43;4.70;;;1.80;;
30605;SDS011;17371;51.328;3.860;2022-10-16T00:03:09;2.67;;;1.65;;
30605;SDS011;17371;51.328;3.860;2022-10-16T00:05:38;5.03;;;1.70;;
30605;SDS011;17371;51.328;3.860;2022-10-16T00:08:04;2.53;;;1.55;;
30605;SDS011;17371;51.328;3.860;2022-10-16T00:10:30;4.88;;;1.50;;
30605;SDS011;17371;51.328;3.860;2022-10-16T00:12:55;3.93;;;1.70;;
30605;SDS011;17371;51.328;3.860;2022-10-16T00:15:20;6.30;;;1.90;;
30605;SDS011;17371;51.328;3.860;2022-10-16T00:17:47;3.28;;;1.55;;
30605;SDS011;17371;51.328;3.860;2022-10-16T00:20:13;4.60;;;1.70;;
30605;SDS011;17371;51.328;3.860;2022-10-16T00:22:38;2.97;;;1.70;;
30605;SDS011;17371;51.328;3.860;2022-10-16T00:25:04;3.63;;;1.80;;
30605;SDS011;17371;51.328;3.860;2022-10-16T00:27:29;2.73;;;1.50;;
30605;SDS011;17371;51.328;3.860;2022-10-16T00:29:55;2.40;;;1.70;;
30605;SDS011;17371;51.328;3.860;2022-10-16T00:32:20;4.07;;;1.90;;
30605;SDS011;17371;51.328;3.860;2022-10-16T00:34:47;2.30;;;1.80;;
30605;SDS011;17371;51.328;3.860;2022-10-16T00:37:12;3.90;;;2.00;;
30605;SDS011;17371;51.328;3.860;2022-10-16T00:39:38;3.03;;;1.57;;
30605;SDS011;17371;51.328;3.860;2022-10-16T00:42:03;2.83;;;1.50;;
30605;SDS011;17371;51.328;3.860;2022-10-16T00:44:42;2.43;;;1.50;;
30605;SDS011;17371;51.328;3.860;2022-10-16T00:47:13;6.45;;;1.80;;
30605;SDS011;17371;51.328;3.860;2022-10-16T00:49:42;2.72;;;1.45;;
30605;SDS011;17371;51.328;3.860;2022-10-16T00:52:09;2.70;;;1.83;;
30605;SDS011;17371;51.328;3.860;2022-10-16T00:54:35;3.42;;;1.63;;
30605;SDS011;17371;51.328;3.860;2022-10-16T00:57:01;2.20;;;1.33;;
30605;SDS011;17371;51.328;3.860;2022-10-16T00:59:28;3.75;;;2.10;;
30605;SDS011;17371;51.328;3.860;2022-10-16T01:01:56;3.03;;;1.70;;
30605;SDS011;17371;51.328;3.860;2022-10-16T01:04:22;2.13;;;1.50;;
30605;SDS011;17371;51.328;3.860;2022-10-16T01:06:50;2.37;;;1.63;;
30605;SDS011;17371;51.328;3.860;2022-10-16T01:09:22;5.68;;;1.83;;
30605;SDS011;17371;51.328;3.860;2022-10-16T01:11:53;5.20;;;1.48;;
30605;SDS011;17371;51.328;3.860;2022-10-16T01:14:25;2.53;;;1.50;;
30605;SDS011;17371;51.328;3.860;2022-10-16T01:16:53;4.93;;;1.70;;
30605;SDS011;17371;51.328;3.860;2022-10-16T01:19:25;2.60;;;1.33;;
30605;SDS011;17371;51.328;3.860;2022-10-16T01:21:56;5.03;;;1.80;;
30605;SDS011;17371;51.328;3.860;2022-10-16T01:24:27;4.18;;;1.70;;
30605;SDS011;17371;51.328;3.860;2022-10-16T01:29:40;4.65;;;1.90;;
30605;SDS011;17371;51.328;3.860;2022-10-16T01:32:09;5.27;;;1.77;;
30605;SDS011;17371;51.328;3.860;2022-10-16T01:34:41;3.30;;;2.00;;
30605;SDS011;17371;51.328;3.860;2022-10-16T01:37:09;4.78;;;2.20;;
30605;SDS011;17371;51.328;3.860;2022-10-16T01:39:38;3.42;;;2.03;;
30605;SDS011;17371;51.328;3.860;2022-10-16T01:42:06;4.82;;;2.10;;
30605;SDS011;17371;51.328;3.860;2022-10-16T01:44:34;3.47;;;2.10;;
30605;SDS011;17371;51.328;3.860;2022-10-16T01:47:01;4.72;;;2.15;;
30605;SDS011;17371;51.328;3.860;2022-10-16T01:49:27;4.40;;;2.50;;
30605;SDS011;17371;51.328;3.860;2022-10-16T01:51:56;3.13;;;2.33;;
30605;SDS011;17371;51.328;3.860;2022-10-16T01:54:25;3.90;;;2.47;;
30605;SDS011;17371;51.328;3.860;2022-10-16T01:56:51;3.45;;;2.20;;
30605;SDS011;17371;51.328;3.860;2022-10-16T01:59:18;8.15;;;2.50;;
30605;SDS011;17371;51.328;3.860;2022-10-16T02:01:47;8.43;;;2.50;;
30605;SDS011;17371;51.328;3.860;2022-10-16T02:04:15;3.55;;;2.00;;
30605;SDS011;17371;51.328;3.860;2022-10-16T02:06:41;5.82;;;2.53;;
30605;SDS011;17371;51.328;3.860;2022-10-16T02:09:07;3.83;;;2.80;;
30605;SDS011;17371;51.328;3.860;2022-10-16T02:11:32;4.32;;;2.35;;
30605;SDS011;17371;51.328;3.860;2022-10-16T02:13:58;9.10;;;2.70;;
30605;SDS011;17371;51.328;3.860;2022-10-16T02:16:32;5.83;;;2.30;;
30605;SDS011;17371;51.328;3.860;2022-10-16T02:19:00;8.25;;;2.15;;
30605;SDS011;17371;51.328;3.860;2022-10-16T02:21:26;5.88;;;1.80;;
30605;SDS011;17371;51.328;3.860;2022-10-16T02:23:55;3.67;;;1.50;;
30605;SDS011;17371;51.328;3.860;2022-10-16T02:26:26;3.08;;;1.77;;
30605;SDS011;17371;51.328;3.860;2022-10-16T02:28:55;4.57;;;2.07;;
30605;SDS011;17371;51.328;3.860;2022-10-16T02:31:22;7.38;;;1.88;;
30605;SDS011;17371;51.328;3.860;2022-10-16T02:33:51;7.20;;;2.22;;
30605;SDS011;17371;51.328;3.860;2022-10-16T02:36:18;4.03;;;1.75;;
30605;SDS011;17371;51.328;3.860;2022-10-16T02:38:43;3.50;;;2.10;;
30605;SDS011;17371;51.328;3.860;2022-10-16T02:41:09;6.90;;;2.00;;
30605;SDS011;17371;51.328;3.860;2022-10-16T02:43:35;4.70;;;1.93;;
30605;SDS011;17371;51.328;3.860;2022-10-16T02:46:00;3.27;;;1.97;;
30605;SDS011;17371;51.328;3.860;2022-10-16T02:48:25;3.92;;;2.50;;
30605;SDS011;17371;51.328;3.860;2022-10-16T02:50:51;5.20;;;1.93;;
30605;SDS011;17371;51.328;3.860;2022-10-16T02:53:17;5.80;;;2.30;;
30605;SDS011;17371;51.328;3.860;2022-10-16T02:55:43;3.97;;;1.95;;
30605;SDS011;17371;51.328;3.860;2022-10-16T02:58:08;4.40;;;2.37;;
30605;SDS011;17371;51.328;3.860;2022-10-16T03:00:34;4.63;;;2.10;;
30605;SDS011;17371;51.328;3.860;2022-10-16T03:02:59;4.10;;;2.50;;
30605;SDS011;17371;51.328;3.860;2022-10-16T03:05:24;6.60;;;2.33;;
30605;SDS011;17371;51.328;3.860;2022-10-16T03:07:50;6.95;;;2.10;;
30605;SDS011;17371;51.328;3.860;2022-10-16T03:10:16;3.90;;;1.90;;
30605;SDS011;17371;51.328;3.860;2022-10-16T03:12:42;3.45;;;1.90;;
30605;SDS011;17371;51.328;3.860;2022-10-16T03:15:07;5.07;;;2.00;;
30605;SDS011;17371;51.328;3.860;2022-10-16T03:17:33;5.72;;;2.42;;
30605;SDS011;17371;51.328;3.860;2022-10-16T03:19:59;3.23;;;2.10;;
30605;SDS011;17371;51.328;3.860;2022-10-16T03:22:24;6.53;;;2.40;;
30605;SDS011;17371;51.328;3.860;2022-10-16T03:24:49;3.87;;;2.00;;
30605;SDS011;17371;51.328;3.860;2022-10-16T03:27:16;5.83;;;1.97;;
30605;SDS011;17371;51.328;3.860;2022-10-16T03:29:42;5.03;;;1.85;;
30605;SDS011;17371;51.328;3.860;2022-10-16T03:32:07;6.93;;;2.37;;
30605;SDS011;17371;51.328;3.860;2022-10-16T03:34:32;4.23;;;2.10;;
30605;SDS011;17371;51.328;3.860;2022-10-16T03:36:58;4.00;;;2.20;;
30605;SDS011;17371;51.328;3.860;2022-10-16T03:39:23;6.57;;;2.20;;
30605;SDS011;17371;51.328;3.860;2022-10-16T03:41:49;3.40;;;2.10;;
30605;SDS011;17371;51.328;3.860;2022-10-16T03:44:15;5.77;;;2.00;;
30605;SDS011;17371;51.328;3.860;2022-10-16T03:46:41;4.90;;;2.40;;
30605;SDS011;17371;51.328;3.860;2022-10-16T03:49:06;4.73;;;1.93;;
30605;SDS011;17371;51.328;3.860;2022-10-16T03:51:31;3.07;;;2.17;;
30605;SDS011;17371;51.328;3.860;2022-10-16T03:53:57;4.35;;;2.00;;
30605;SDS011;17371;51.328;3.860;2022-10-16T03:56:22;5.00;;;2.23;;
30605;SDS011;17371;51.328;3.860;2022-10-16T03:58:48;5.60;;;2.27;;
30605;SDS011;17371;51.328;3.860;2022-10-16T04:01:14;6.60;;;2.03;;
30605;SDS011;17371;51.328;3.860;2022-10-16T04:03:41;7.93;;;2.50;;
30605;SDS011;17371;51.328;3.860;2022-10-16T04:06:08;5.10;;;2.17;;
30605;SDS011;17371;51.328;3.860;2022-10-16T04:08:34;4.57;;;2.20;;
30605;SDS011;17371;51.328;3.860;2022-10-16T04:10:59;3.50;;;2.07;;
30605;SDS011;17371;51.328;3.860;2022-10-16T04:13:25;6.03;;;2.57;;
30605;SDS011;17371;51.328;3.860;2022-10-16T04:15:50;8.00;;;2.45;;
30605;SDS011;17371;51.328;3.860;2022-10-16T04:18:17;5.18;;;2.40;;
30605;SDS011;17371;51.328;3.860;2022-10-16T04:20:42;3.70;;;1.97;;
30605;SDS011;17371;51.328;3.860;2022-10-16T04:23:07;6.65;;;2.38;;
30605;SDS011;17371;51.328;3.860;2022-10-16T04:25:33;5.75;;;2.10;;
30605;SDS011;17371;51.328;3.860;2022-10-16T04:27:58;4.47;;;2.00;;
30605;SDS011;17371;51.328;3.860;2022-10-16T04:30:24;4.20;;;2.10;;
30605;SDS011;17371;51.328;3.860;2022-10-16T04:32:50;6.55;;;2.00;;
30605;SDS011;17371;51.328;3.860;2022-10-16T04:35:17;5.07;;;2.22;;
30605;SDS011;17371;51.328;3.860;2022-10-16T04:37:43;4.93;;;2.05;;
30605;SDS011;17371;51.328;3.860;2022-10-16T04:40:08;6.35;;;2.30;;
30605;SDS011;17371;51.328;3.860;2022-10-16T04:42:34;3.88;;;2.10;;
30605;SDS011;17371;51.328;3.860;2022-10-16T04:44:59;5.33;;;2.10;;
30605;SDS011;17371;51.328;3.860;2022-10-16T04:47:25;5.80;;;2.33;;
30605;SDS011;17371;51.328;3.860;2022-10-16T04:49:50;8.30;;;2.30;;
30605;SDS011;17371;51.328;3.860;2022-10-16T04:52:17;5.82;;;2.20;;
30605;SDS011;17371;51.328;3.860;2022-10-16T04:54:42;5.68;;;2.10;;
30605;SDS011;17371;51.328;3.860;2022-10-16T04:57:08;4.83;;;1.90;;
30605;SDS011;17371;51.328;3.860;2022-10-16T04:59:33;4.50;;;2.50;;
30605;SDS011;17371;51.328;3.860;2022-10-16T05:01:58;6.50;;;2.10;;
30605;SDS011;17371;51.328;3.860;2022-10-16T05:04:24;4.87;;;2.20;;
30605;SDS011;17371;51.328;3.860;2022-10-16T05:06:49;4.83;;;2.10;;
30605;SDS011;17371;51.328;3.860;2022-10-16T05:09:16;5.53;;;2.07;;
30605;SDS011;17371;51.328;3.860;2022-10-16T05:11:41;7.72;;;2.65;;
30605;SDS011;17371;51.328;3.860;2022-10-16T05:14:06;5.00;;;2.37;;
30605;SDS011;17371;51.328;3.860;2022-10-16T05:16:32;4.40;;;2.20;;
30605;SDS011;17371;51.328;3.860;2022-10-16T05:18:57;4.47;;;2.13;;
30605;SDS011;17371;51.328;3.860;2022-10-16T05:21:23;7.20;;;2.53;;
30605;SDS011;17371;51.328;3.860;2022-10-16T05:23:48;6.22;;;2.38;;
30605;SDS011;17371;51.328;3.860;2022-10-16T05:26:15;5.37;;;2.20;;
30605;SDS011;17371;51.328;3.860;2022-10-16T05:28:40;5.20;;;2.50;;
30605;SDS011;17371;51.328;3.860;2022-10-16T05:31:06;3.97;;;2.35;;
30605;SDS011;17371;51.328;3.860;2022-10-16T05:33:32;5.43;;;2.30;;
30605;SDS011;17371;51.328;3.860;2022-10-16T05:36:00;6.15;;;2.15;;
30605;SDS011;17371;51.328;3.860;2022-10-16T05:38:26;7.65;;;2.10;;
30605;SDS011;17371;51.328;3.860;2022-10-16T05:40:51;5.87;;;2.30;;
30605;SDS011;17371;51.328;3.860;2022-10-16T05:43:18;3.97;;;1.90;;
30605;SDS011;17371;51.328;3.860;2022-10-16T05:45:44;2.63;;;1.77;;
30605;SDS011;17371;51.328;3.860;2022-10-16T05:48:09;6.30;;;1.83;;
30605;SDS011;17371;51.328;3.860;2022-10-16T05:50:34;3.67;;;1.80;;
30605;SDS011;17371;51.328;3.860;2022-10-16T05:53:00;5.63;;;1.90;;
30605;SDS011;17371;51.328;3.860;2022-10-16T05:55:25;5.23;;;2.03;;
30605;SDS011;17371;51.328;3.860;2022-10-16T05:57:53;8.33;;;1.80;;
30605;SDS011;17371;51.328;3.860;2022-10-16T06:00:20;5.50;;;2.10;;
30605;SDS011;17371;51.328;3.860;2022-10-16T06:02:45;8.00;;;2.30;;
30605;SDS011;17371;51.328;3.860;2022-10-16T06:05:11;6.90;;;2.23;;
30605;SDS011;17371;51.328;3.860;2022-10-16T06:07:36;9.70;;;2.10;;
30605;SDS011;17371;51.328;3.860;2022-10-16T06:10:01;4.33;;;2.23;;
30605;SDS011;17371;51.328;3.860;2022-10-16T06:12:27;5.32;;;2.40;;
30605;SDS011;17371;51.328;3.860;2022-10-16T06:14:53;9.23;;;2.73;;
30605;SDS011;17371;51.328;3.860;2022-10-16T06:17:19;7.93;;;2.43;;
30605;SDS011;17371;51.328;3.860;2022-10-16T06:19:45;5.47;;;2.35;;
30605;SDS011;17371;51.328;3.860;2022-10-16T06:22:10;4.10;;;2.10;;
30605;SDS011;17371;51.328;3.860;2022-10-16T06:24:36;4.70;;;2.10;;
30605;SDS011;17371;51.328;3.860;2022-10-16T06:27:01;6.37;;;2.40;;
30605;SDS011;17371;51.328;3.860;2022-10-16T06:29:28;4.35;;;2.67;;
30605;SDS011;17371;51.328;3.860;2022-10-16T06:31:53;5.50;;;3.30;;
30605;SDS011;17371;51.328;3.860;2022-10-16T06:34:20;7.33;;;2.70;;
30605;SDS011;17371;51.328;3.860;2022-10-16T06:36:45;6.07;;;2.50;;
30605;SDS011;17371;51.328;3.860;2022-10-16T06:39:10;5.20;;;2.80;;
30605;SDS011;17371;51.328;3.860;2022-10-16T06:41:36;6.40;;;2.53;;
30605;SDS011;17371;51.328;3.860;2022-10-16T06:44:01;10.77;;;2.90;;
30605;SDS011;17371;51.328;3.860;2022-10-16T06:46:30;6.88;;;2.40;;
30605;SDS011;17371;51.328;3.860;2022-10-16T06:48:55;6.27;;;2.70;;
30605;SDS011;17371;51.328;3.860;2022-10-16T06:51:22;7.32;;;2.45;;
30605;SDS011;17371;51.328;3.860;2022-10-16T06:53:49;11.03;;;3.10;;
30605;SDS011;17371;51.328;3.860;2022-10-16T06:56:16;6.95;;;2.33;;
30605;SDS011;17371;51.328;3.860;2022-10-16T06:58:43;8.13;;;2.40;;
30605;SDS011;17371;51.328;3.860;2022-10-16T07:01:09;6.67;;;2.10;;
30605;SDS011;17371;51.328;3.860;2022-10-16T07:03:36;9.27;;;2.47;;
30605;SDS011;17371;51.328;3.860;2022-10-16T07:06:03;6.22;;;2.30;;
30605;SDS011;17371;51.328;3.860;2022-10-16T07:08:31;10.07;;;3.38;;
30605;SDS011;17371;51.328;3.860;2022-10-16T07:11:00;7.93;;;2.43;;
30605;SDS011;17371;51.328;3.860;2022-10-16T07:13:26;5.72;;;2.78;;
30605;SDS011;17371;51.328;3.860;2022-10-16T07:15:51;7.45;;;2.55;;
30605;SDS011;17371;51.328;3.860;2022-10-16T07:18:17;5.88;;;2.42;;
30605;SDS011;17371;51.328;3.860;2022-10-16T07:20:42;5.03;;;2.73;;
30605;SDS011;17371;51.328;3.860;2022-10-16T07:23:07;8.83;;;2.60;;
30605;SDS011;17371;51.328;3.860;2022-10-16T07:25:34;6.67;;;2.73;;
30605;SDS011;17371;51.328;3.860;2022-10-16T07:27:59;6.28;;;2.78;;
30605;SDS011;17371;51.328;3.860;2022-10-16T07:30:25;4.70;;;2.30;;
30605;SDS011;17371;51.328;3.860;2022-10-16T07:32:50;5.30;;;2.50;;
30605;SDS011;17371;51.328;3.860;2022-10-16T07:35:16;5.00;;;2.43;;
30605;SDS011;17371;51.328;3.860;2022-10-16T07:37:43;7.00;;;2.70;;
30605;SDS011;17371;51.328;3.860;2022-10-16T07:40:10;6.93;;;2.40;;
30605;SDS011;17371;51.328;3.860;2022-10-16T07:42:36;4.63;;;2.20;;
30605;SDS011;17371;51.328;3.860;2022-10-16T07:45:02;5.68;;;2.42;;
30605;SDS011;17371;51.328;3.860;2022-10-16T07:47:28;5.93;;;2.43;;
30605;SDS011;17371;51.328;3.860;2022-10-16T07:49:53;7.75;;;2.50;;
30605;SDS011;17371;51.328;3.860;2022-10-16T07:52:19;7.37;;;2.47;;
30605;SDS011;17371;51.328;3.860;2022-10-16T07:54:44;7.00;;;2.40;;
30605;SDS011;17371;51.328;3.860;2022-10-16T07:57:09;10.20;;;2.90;;
30605;SDS011;17371;51.328;3.860;2022-10-16T07:59:36;5.93;;;2.20;;
30605;SDS011;17371;51.328;3.860;2022-10-16T08:02:01;8.98;;;2.38;;
30605;SDS011;17371;51.328;3.860;2022-10-16T08:04:27;8.70;;;2.50;;
30605;SDS011;17371;51.328;3.860;2022-10-16T08:06:52;5.22;;;2.20;;
30605;SDS011;17371;51.328;3.860;2022-10-16T08:09:18;6.50;;;2.33;;
30605;SDS011;17371;51.328;3.860;2022-10-16T08:11:43;7.13;;;2.10;;
30605;SDS011;17371;51.328;3.860;2022-10-16T08:14:08;6.53;;;2.40;;
30605;SDS011;17371;51.328;3.860;2022-10-16T08:16:35;6.00;;;2.13;;
30605;SDS011;17371;51.328;3.860;2022-10-16T08:19:01;4.90;;;2.13;;
30605;SDS011;17371;51.328;3.860;2022-10-16T08:21:26;6.87;;;2.30;;
30605;SDS011;17371;51.328;3.860;2022-10-16T08:23:52;7.83;;;2.23;;
30605;SDS011;17371;51.328;3.860;2022-10-16T08:26:18;6.35;;;2.00;;
30605;SDS011;17371;51.328;3.860;2022-10-16T08:28:43;4.70;;;2.10;;
30605;SDS011;17371;51.328;3.860;2022-10-16T08:31:09;8.20;;;2.13;;
30605;SDS011;17371;51.328;3.860;2022-10-16T08:33:39;4.15;;;2.10;;
30605;SDS011;17371;51.328;3.860;2022-10-16T08:36:06;7.13;;;2.40;;
30605;SDS011;17371;51.328;3.860;2022-10-16T08:38:32;9.73;;;2.43;;
30605;SDS011;17371;51.328;3.860;2022-10-16T08:41:01;9.98;;;1.90;;
30605;SDS011;17371;51.328;3.860;2022-10-16T08:43:35;7.10;;;2.50;;
30605;SDS011;17371;51.328;3.860;2022-10-16T08:46:14;8.45;;;2.20;;
30605;SDS011;17371;51.328;3.860;2022-10-16T08:48:46;7.18;;;2.17;;
30605;SDS011;17371;51.328;3.860;2022-10-16T08:51:15;7.28;;;2.25;;
30605;SDS011;17371;51.328;3.860;2022-10-16T08:53:46;6.55;;;1.90;;
30605;SDS011;17371;51.328;3.860;2022-10-16T08:56:14;7.63;;;2.33;;
30605;SDS011;17371;51.328;3.860;2022-10-16T08:58:40;7.28;;;2.78;;
30605;SDS011;17371;51.328;3.860;2022-10-16T09:01:13;6.83;;;2.40;;
30605;SDS011;17371;51.328;3.860;2022-10-16T09:03:44;4.78;;;2.10;;
30605;SDS011;17371;51.328;3.860;2022-10-16T09:06:28;6.00;;;2.30;;
30605;SDS011;17371;51.328;3.860;2022-10-16T09:09:00;9.73;;;2.72;;
30605;SDS011;17371;51.328;3.860;2022-10-16T09:11:36;6.38;;;2.10;;
30605;SDS011;17371;51.328;3.860;2022-10-16T09:14:14;9.90;;;2.50;;
30605;SDS011;17371;51.328;3.860;2022-10-16T09:16:44;6.07;;;2.22;;
30605;SDS011;17371;51.328;3.860;2022-10-16T09:19:15;8.63;;;2.90;;
30605;SDS011;17371;51.328;3.860;2022-10-16T09:21:44;9.82;;;2.60;;
30605;SDS011;17371;51.328;3.860;2022-10-16T09:24:11;5.78;;;2.22;;
30605;SDS011;17371;51.328;3.860;2022-10-16T09:26:38;7.60;;;2.30;;
30605;SDS011;17371;51.328;3.860;2022-10-16T09:29:03;9.70;;;2.63;;
30605;SDS011;17371;51.328;3.860;2022-10-16T09:31:29;7.47;;;2.63;;
30605;SDS011;17371;51.328;3.860;2022-10-16T09:33:55;10.80;;;2.60;;
30605;SDS011;17371;51.328;3.860;2022-10-16T09:36:25;7.43;;;2.55;;
30605;SDS011;17371;51.328;3.860;2022-10-16T09:39:00;12.52;;;2.90;;
30605;SDS011;17371;51.328;3.860;2022-10-16T09:41:27;7.85;;;2.47;;
30605;SDS011;17371;51.328;3.860;2022-10-16T09:43:53;6.80;;;2.37;;
30605;SDS011;17371;51.328;3.860;2022-10-16T09:46:21;7.85;;;2.17;;
30605;SDS011;17371;51.328;3.860;2022-10-16T09:48:50;10.10;;;2.77;;
30605;SDS011;17371;51.328;3.860;2022-10-16T09:51:16;11.95;;;3.00;;
30605;SDS011;17371;51.328;3.860;2022-10-16T09:53:45;16.98;;;2.40;;
30605;SDS011;17371;51.328;3.860;2022-10-16T09:56:20;12.95;;;2.58;;
30605;SDS011;17371;51.328;3.860;2022-10-16T09:58:49;7.60;;;2.50;;
30605;SDS011;17371;51.328;3.860;2022-10-16T10:01:15;9.07;;;2.80;;
30605;SDS011;17371;51.328;3.860;2022-10-16T10:03:41;9.10;;;2.88;;
30605;SDS011;17371;51.328;3.860;2022-10-16T10:06:15;9.52;;;2.50;;
30605;SDS011;17371;51.328;3.860;2022-10-16T10:08:53;7.43;;;2.70;;
30605;SDS011;17371;51.328;3.860;2022-10-16T10:17:06;13.65;;;2.47;;
30605;SDS011;17371;51.328;3.860;2022-10-16T10:19:37;13.18;;;3.67;;
30605;SDS011;17371;51.328;3.860;2022-10-16T10:22:11;11.48;;;3.15;;
30605;SDS011;17371;51.328;3.860;2022-10-16T10:24:41;10.65;;;2.38;;
30605;SDS011;17371;51.328;3.860;2022-10-16T10:27:08;11.25;;;2.42;;
30605;SDS011;17371;51.328;3.860;2022-10-16T10:29:40;10.57;;;2.28;;
30605;SDS011;17371;51.328;3.860;2022-10-16T10:32:19;11.80;;;2.53;;
30605;SDS011;17371;51.328;3.860;2022-10-16T10:34:55;12.80;;;2.10;;
30605;SDS011;17371;51.328;3.860;2022-10-16T10:37:30;12.57;;;1.60;;
30605;SDS011;17371;51.328;3.860;2022-10-16T10:40:05;17.17;;;2.13;;
30605;SDS011;17371;51.328;3.860;2022-10-16T10:42:38;14.88;;;2.63;;
30605;SDS011;17371;51.328;3.860;2022-10-16T10:45:17;14.02;;;2.40;;
30605;SDS011;17371;51.328;3.860;2022-10-16T10:47:46;13.07;;;2.42;;
30605;SDS011;17371;51.328;3.860;2022-10-16T10:50:18;9.18;;;2.30;;
30605;SDS011;17371;51.328;3.860;2022-10-16T10:52:50;12.43;;;2.20;;
30605;SDS011;17371;51.328;3.860;2022-10-16T10:55:25;14.18;;;2.50;;
30605;SDS011;17371;51.328;3.860;2022-10-16T10:58:00;11.77;;;2.17;;
30605;SDS011;17371;51.328;3.860;2022-10-16T11:00:38;13.45;;;2.72;;
30605;SDS011;17371;51.328;3.860;2022-10-16T11:03:12;12.32;;;2.63;;
30605;SDS011;17371;51.328;3.860;2022-10-16T11:05:44;12.65;;;2.92;;
30605;SDS011;17371;51.328;3.860;2022-10-16T11:08:13;11.00;;;2.30;;
30605;SDS011;17371;51.328;3.860;2022-10-16T11:10:46;12.98;;;2.88;;
30605;SDS011;17371;51.328;3.860;2022-10-16T11:13:17;13.95;;;3.00;;
30605;SDS011;17371;51.328;3.860;2022-10-16T11:15:47;18.88;;;2.75;;
30605;SDS011;17371;51.328;3.860;2022-10-16T11:18:15;12.55;;;2.38;;
30605;SDS011;17371;51.328;3.860;2022-10-16T11:20:45;10.25;;;2.30;;
30605;SDS011;17371;51.328;3.860;2022-10-16T11:23:14;14.85;;;2.35;;
30605;SDS011;17371;51.328;3.860;2022-10-16T11:25:41;10.50;;;2.67;;
30605;SDS011;17371;51.328;3.860;2022-10-16T11:28:10;15.85;;;2.38;;
30605;SDS011;17371;51.328;3.860;2022-10-16T11:30:39;11.48;;;2.35;;
30605;SDS011;17371;51.328;3.860;2022-10-16T11:33:10;13.65;;;2.72;;
30605;SDS011;17371;51.328;3.860;2022-10-16T11:35:47;13.55;;;2.58;;
30605;SDS011;17371;51.328;3.860;2022-10-16T11:38:15;17.05;;;2.70;;
30605;SDS011;17371;51.328;3.860;2022-10-16T11:40:47;20.77;;;3.08;;
30605;SDS011;17371;51.328;3.860;2022-10-16T11:43:15;11.15;;;2.30;;
30605;SDS011;17371;51.328;3.860;2022-10-16T11:45:43;17.25;;;3.17;;
30605;SDS011;17371;51.328;3.860;2022-10-16T11:48:15;11.30;;;2.92;;
30605;SDS011;17371;51.328;3.860;2022-10-16T11:50:46;13.13;;;2.25;;
30605;SDS011;17371;51.328;3.860;2022-10-16T11:53:16;15.70;;;2.83;;
30605;SDS011;17371;51.328;3.860;2022-10-16T11:55:45;14.55;;;3.05;;
30605;SDS011;17371;51.328;3.860;2022-10-16T11:58:13;12.40;;;3.73;;
30605;SDS011;17371;51.328;3.860;2022-10-16T12:00:46;14.27;;;2.85;;
30605;SDS011;17371;51.328;3.860;2022-10-16T12:03:17;11.38;;;2.30;;
30605;SDS011;17371;51.328;3.860;2022-10-16T12:05:50;10.00;;;2.40;;
30605;SDS011;17371;51.328;3.860;2022-10-16T12:08:20;8.83;;;2.40;;
30605;SDS011;17371;51.328;3.860;2022-10-16T12:10:46;11.38;;;2.17;;
30605;SDS011;17371;51.328;3.860;2022-10-16T12:13:30;10.25;;;2.70;;
30605;SDS011;17371;51.328;3.860;2022-10-16T12:16:03;13.77;;;2.60;;
30605;SDS011;17371;51.328;3.860;2022-10-16T12:18:30;14.80;;;2.90;;
30605;SDS011;17371;51.328;3.860;2022-10-16T12:20:56;8.83;;;2.20;;
30605;SDS011;17371;51.328;3.860;2022-10-16T12:23:21;14.40;;;2.78;;
30605;SDS011;17371;51.328;3.860;2022-10-16T12:25:53;6.17;;;2.00;;
30605;SDS011;17371;51.328;3.860;2022-10-16T12:28:20;7.20;;;2.13;;
30605;SDS011;17371;51.328;3.860;2022-10-16T12:30:53;10.55;;;1.92;;
30605;SDS011;17371;51.328;3.860;2022-10-16T12:33:20;10.13;;;2.25;;
30605;SDS011;17371;51.328;3.860;2022-10-16T12:35:47;7.75;;;2.55;;
30605;SDS011;17371;51.328;3.860;2022-10-16T12:38:14;9.17;;;2.70;;
30605;SDS011;17371;51.328;3.860;2022-10-16T12:40:41;10.98;;;2.80;;
30605;SDS011;17371;51.328;3.860;2022-10-16T12:43:12;10.93;;;2.53;;
30605;SDS011;17371;51.328;3.860;2022-10-16T12:45:38;8.20;;;2.20;;
30605;SDS011;17371;51.328;3.860;2022-10-16T12:48:18;8.23;;;2.80;;
30605;SDS011;17371;51.328;3.860;2022-10-16T12:50:45;10.60;;;2.33;;
30605;SDS011;17371;51.328;3.860;2022-10-16T12:53:17;13.53;;;2.80;;
30605;SDS011;17371;51.328;3.860;2022-10-16T12:55:45;8.57;;;2.00;;
30605;SDS011;17371;51.328;3.860;2022-10-16T12:58:24;8.23;;;1.98;;
30605;SDS011;17371;51.328;3.860;2022-10-16T13:00:58;9.60;;;2.63;;
30605;SDS011;17371;51.328;3.860;2022-10-16T13:03:43;8.00;;;2.40;;
30605;SDS011;17371;51.328;3.860;2022-10-16T13:06:22;9.33;;;2.20;;
30605;SDS011;17371;51.328;3.860;2022-10-16T13:09:04;11.68;;;2.90;;
30605;SDS011;17371;51.328;3.860;2022-10-16T13:11:41;6.78;;;2.13;;
30605;SDS011;17371;51.328;3.860;2022-10-16T13:14:31;10.60;;;2.45;;
30605;SDS011;17371;51.328;3.860;2022-10-16T13:17:09;12.18;;;3.13;;
30605;SDS011;17371;51.328;3.860;2022-10-16T13:19:41;10.43;;;3.00;;
30605;SDS011;17371;51.328;3.860;2022-10-16T13:22:11;9.23;;;2.63;;
30605;SDS011;17371;51.328;3.860;2022-10-16T13:24:48;9.07;;;2.38;;
30605;SDS011;17371;51.328;3.860;2022-10-16T13:27:23;8.32;;;2.50;;
30605;SDS011;17371;51.328;3.860;2022-10-16T13:30:01;8.88;;;2.58;;
30605;SDS011;17371;51.328;3.860;2022-10-16T13:32:33;7.93;;;2.40;;
30605;SDS011;17371;51.328;3.860;2022-10-16T13:35:00;9.90;;;2.22;;
30605;SDS011;17371;51.328;3.860;2022-10-16T13:37:25;9.17;;;2.03;;
30605;SDS011;17371;51.328;3.860;2022-10-16T13:39:50;6.75;;;2.55;;
30605;SDS011;17371;51.328;3.860;2022-10-16T13:42:18;9.73;;;2.03;;
30605;SDS011;17371;51.328;3.860;2022-10-16T13:44:47;10.43;;;2.30;;
30605;SDS011;17371;51.328;3.860;2022-10-16T13:47:15;6.30;;;2.00;;
30605;SDS011;17371;51.328;3.860;2022-10-16T13:49:41;10.00;;;2.10;;
30605;SDS011;17371;51.328;3.860;2022-10-16T13:52:17;6.97;;;1.80;;
30605;SDS011;17371;51.328;3.860;2022-10-16T13:54:44;8.07;;;1.98;;
30605;SDS011;17371;51.328;3.860;2022-10-16T13:57:11;9.03;;;1.77;;
30605;SDS011;17371;51.328;3.860;2022-10-16T13:59:38;4.65;;;1.70;;
30605;SDS011;17371;51.328;3.860;2022-10-16T14:02:05;4.57;;;1.73;;
30605;SDS011;17371;51.328;3.860;2022-10-16T14:04:40;7.85;;;1.80;;
30605;SDS011;17371;51.328;3.860;2022-10-16T14:07:05;4.13;;;1.80;;
30605;SDS011;17371;51.328;3.860;2022-10-16T14:09:32;6.47;;;1.40;;
30605;SDS011;17371;51.328;3.860;2022-10-16T14:11:57;10.95;;;1.67;;
30605;SDS011;17371;51.328;3.860;2022-10-16T14:14:25;6.43;;;1.23;;
30605;SDS011;17371;51.328;3.860;2022-10-16T14:16:52;5.88;;;1.50;;
30605;SDS011;17371;51.328;3.860;2022-10-16T14:19:18;6.63;;;1.60;;
30605;SDS011;17371;51.328;3.860;2022-10-16T14:21:45;11.68;;;1.92;;
30605;SDS011;17371;51.328;3.860;2022-10-16T14:24:11;6.77;;;1.87;;
30605;SDS011;17371;51.328;3.860;2022-10-16T14:26:42;6.13;;;1.30;;
30605;SDS011;17371;51.328;3.860;2022-10-16T14:29:10;5.07;;;1.73;;
30605;SDS011;17371;51.328;3.860;2022-10-16T14:31:37;7.47;;;1.60;;
30605;SDS011;17371;51.328;3.860;2022-10-16T14:34:03;7.73;;;1.97;;
30605;SDS011;17371;51.328;3.860;2022-10-16T14:36:28;5.15;;;1.60;;
30605;SDS011;17371;51.328;3.860;2022-10-16T14:38:57;4.87;;;1.33;;
30605;SDS011;17371;51.328;3.860;2022-10-16T14:41:24;7.28;;;1.80;;
30605;SDS011;17371;51.328;3.860;2022-10-16T14:43:51;5.00;;;1.92;;
30605;SDS011;17371;51.328;3.860;2022-10-16T14:46:19;4.22;;;1.70;;
30605;SDS011;17371;51.328;3.860;2022-10-16T14:48:46;7.22;;;1.60;;
30605;SDS011;17371;51.328;3.860;2022-10-16T14:51:13;4.85;;;1.70;;
30605;SDS011;17371;51.328;3.860;2022-10-16T14:53:39;6.72;;;1.90;;
30605;SDS011;17371;51.328;3.860;2022-10-16T14:56:06;6.57;;;2.10;;
30605;SDS011;17371;51.328;3.860;2022-10-16T14:58:31;7.40;;;1.85;;